Time;durP1;ratioP1;P1;durP2;ratioP2;P2;SDS_P1;SDS_P2;PMS_P1;PMS_P2;Temp;Humidity;BMP_temperature;BMP_pressure;BME280_temperature;BME280_humidity;BME280_pressure;Samples;Min_cycle;Max_cycle;Signal;HPM_P1;HPM_P2
2022/10/08 00:00:57;;;;;;;;;;;14.80;85.20;;;;;;5076197;28;20057;-89
2022/10/08 00:03:24;;;;;;;;;;;14.80;85.10;;;;;;5057573;28;19992;-88
2022/10/08 00:05:55;;;;;;;;;;;14.60;85.10;;;;;;5076130;28;19940;-88
2022/10/08 00:08:21;;;;;;;;;;;14.60;85.10;;;;;;5064990;28;20330;-89
2022/10/08 00:10:54;;;;;;;;;;;14.50;85.40;;;;;;5066249;28;19972;-89
2022/10/08 00:13:20;;;;;;;;;;;14.40;85.90;;;;;;5076012;28;19943;-89
2022/10/08 00:15:45;;;;;;;;;;;14.40;86.20;;;;;;5075923;28;19987;-89
2022/10/08 00:18:11;;;;;;;;;;;14.30;86.20;;;;;;5075904;28;20000;-89
2022/10/08 00:20:36;;;;;;;;;;;14.30;86.00;;;;;;5074531;28;19947;-89
2022/10/08 00:23:02;;;;;;;;;;;14.20;86.20;;;;;;5073465;28;20400;-89
2022/10/08 00:25:27;;;;;;;;;;;14.10;86.30;;;;;;5074741;28;20464;-89
2022/10/08 00:27:53;;;;;;;;;;;14.10;86.60;;;;;;5075862;28;20412;-89
2022/10/08 00:30:19;;;;;;;;;;;14.10;87.30;;;;;;5074938;28;19969;-89
2022/10/08 00:32:44;;;;;;;;;;;14.10;87.90;;;;;;5075691;28;19937;-89
2022/10/08 00:37:06;;;;;;;;;;;14.00;88.30;;;;;;5103079;27;19989;-89
2022/10/08 00:39:31;;;;;;;;;;;14.00;88.70;;;;;;5090676;28;20404;-89
2022/10/08 00:41:57;;;;;;;;;;;13.90;88.60;;;;;;5090034;28;19985;-90
2022/10/08 00:44:41;;;;;;;;;;;13.80;88.60;;;;;;5090640;28;19940;-89
2022/10/08 00:47:18;;;;;;;;;;;13.70;88.40;;;;;;5085244;28;19943;-89
2022/10/08 00:49:48;;;;;;;;;;;13.70;87.70;;;;;;5070577;28;19955;-89
2022/10/08 00:52:13;;;;;;;;;;;13.60;87.80;;;;;;5073810;28;19994;-89
2022/10/08 00:54:39;;;;;;;;;;;13.60;88.20;;;;;;5070130;28;19989;-89
2022/10/08 00:57:05;;;;;;;;;;;13.70;88.60;;;;;;5075531;28;19990;-89
2022/10/08 00:59:30;;;;;;;;;;;13.80;88.60;;;;;;5089070;28;19944;-89
2022/10/08 01:01:56;;;;;;;;;;;13.90;88.30;;;;;;5090575;28;19987;-89
2022/10/08 01:04:21;;;;;;;;;;;13.80;88.20;;;;;;5090209;28;19940;-89
2022/10/08 01:07:06;;;;;;;;;;;13.70;88.10;;;;;;5089354;28;19940;-89
2022/10/08 01:09:37;;;;;;;;;;;13.60;88.20;;;;;;5069875;28;20410;-89
2022/10/08 01:12:12;;;;;;;;;;;13.50;88.40;;;;;;5069863;28;19944;-89
2022/10/08 01:14:59;;;;;;;;;;;13.50;88.70;;;;;;5069602;28;19942;-89
2022/10/08 01:17:34;;;;;;;;;;;13.40;88.40;;;;;;5078156;28;20031;-89
2022/10/08 01:20:15;;;;;;;;;;;13.50;88.30;;;;;;5089939;28;19945;-89
2022/10/08 01:22:53;;;;;;;;;;;13.50;88.60;;;;;;5089316;28;19939;-89
2022/10/08 01:25:42;;;;;;;;;;;13.50;89.00;;;;;;5089848;28;19994;-89
2022/10/08 01:28:24;;;;;;;;;;;13.50;88.80;;;;;;5089096;28;20034;-89
2022/10/08 01:30:52;;;;;;;;;;;13.50;88.60;;;;;;5071864;28;20047;-89
2022/10/08 01:33:21;;;;;;;;;;;13.50;88.70;;;;;;5089938;28;19938;-89
2022/10/08 01:35:49;;;;;;;;;;;13.50;89.00;;;;;;5089367;28;19982;-89
2022/10/08 01:38:16;;;;;;;;;;;13.50;88.70;;;;;;5078560;28;20046;-89
2022/10/08 01:40:43;;;;;;;;;;;13.50;88.80;;;;;;5086400;28;19949;-89
2022/10/08 01:43:10;;;;;;;;;;;13.40;88.60;;;;;;5089417;28;19935;-89
2022/10/08 01:45:48;;;;;;;;;;;13.50;88.70;;;;;;5088624;28;19951;-89
2022/10/08 01:48:16;;;;;;;;;;;13.50;88.70;;;;;;5077395;28;19942;-89
2022/10/08 01:50:45;;;;;;;;;;;13.50;86.20;;;;;;5075723;28;19943;-89
2022/10/08 01:53:13;;;;;;;;;;;13.40;85.50;;;;;;5075006;28;19944;-89
2022/10/08 01:55:40;;;;;;;;;;;13.40;85.60;;;;;;5074422;28;20003;-89
2022/10/08 01:58:08;;;;;;;;;;;13.30;85.60;;;;;;5075694;28;20063;-89
2022/10/08 02:00:34;;;;;;;;;;;13.30;86.10;;;;;;5074432;28;19940;-89
2022/10/08 02:03:00;;;;;;;;;;;13.30;86.60;;;;;;5064477;28;19987;-89
2022/10/08 02:05:28;;;;;;;;;;;13.40;87.70;;;;;;5055588;28;20313;-89
2022/10/08 02:07:54;;;;;;;;;;;13.30;87.50;;;;;;5059930;28;19956;-89
2022/10/08 02:10:24;;;;;;;;;;;13.30;87.50;;;;;;5055446;28;19939;-90
2022/10/08 02:12:49;;;;;;;;;;;13.30;87.40;;;;;;5064326;28;20007;-89
2022/10/08 02:15:17;;;;;;;;;;;13.30;87.30;;;;;;5075396;28;20356;-89
2022/10/08 02:17:49;;;;;;;;;;;13.30;87.20;;;;;;5075388;28;19943;-89
2022/10/08 02:20:25;;;;;;;;;;;13.10;87.30;;;;;;5075305;28;19961;-89
2022/10/08 02:22:59;;;;;;;;;;;13.10;87.70;;;;;;5073459;28;19942;-89
2022/10/08 02:25:47;;;;;;;;;;;13.20;88.60;;;;;;5075259;28;20450;-89
2022/10/08 02:28:13;;;;;;;;;;;13.30;88.20;;;;;;5073858;28;19942;-89
2022/10/08 02:30:46;;;;;;;;;;;13.20;87.80;;;;;;5073819;28;19988;-89
2022/10/08 02:33:20;;;;;;;;;;;13.00;87.30;;;;;;5073282;28;19952;-89
2022/10/08 02:35:48;;;;;;;;;;;13.00;86.60;;;;;;5074786;28;20012;-89
2022/10/08 02:38:23;;;;;;;;;;;13.00;87.10;;;;;;5074057;28;20035;-89
2022/10/08 02:40:51;;;;;;;;;;;13.10;87.40;;;;;;5074936;28;19938;-89
2022/10/08 02:44:25;;;;;;;;;;;13.00;87.20;;;;;;5151446;27;20420;-89
2022/10/08 02:46:53;;;;;;;;;;;12.90;87.50;;;;;;5152138;27;19941;-89
2022/10/08 02:49:25;;;;;;;;;;;12.90;87.80;;;;;;5152155;27;20021;-89
2022/10/08 02:51:52;;;;;;;;;;;12.90;88.30;;;;;;5140113;27;20444;-89
2022/10/08 02:54:18;;;;;;;;;;;12.80;88.80;;;;;;5121999;28;19947;-89
2022/10/08 02:56:51;;;;;;;;;;;12.80;88.20;;;;;;5131376;28;19960;-90
2022/10/08 02:59:18;;;;;;;;;;;12.80;88.30;;;;;;5131325;28;19937;-89
2022/10/08 03:01:54;;;;;;;;;;;12.80;88.00;;;;;;5131200;28;19940;-89
2022/10/08 03:04:31;;;;;;;;;;;12.70;87.20;;;;;;5127693;28;19960;-89
2022/10/08 03:06:58;;;;;;;;;;;12.60;87.20;;;;;;5129315;28;19949;-89
2022/10/08 03:09:25;;;;;;;;;;;12.50;87.50;;;;;;5121453;28;19955;-89
2022/10/08 03:11:50;;;;;;;;;;;12.50;87.30;;;;;;5131303;28;19965;-89
2022/10/08 03:14:18;;;;;;;;;;;12.40;87.30;;;;;;5095627;28;20383;-89
2022/10/08 03:16:44;;;;;;;;;;;12.50;87.10;;;;;;5129401;28;20045;-88
2022/10/08 03:19:11;;;;;;;;;;;12.50;87.10;;;;;;5130915;28;19945;-89
2022/10/08 03:21:38;;;;;;;;;;;12.60;87.80;;;;;;5130829;28;19949;-89
2022/10/08 03:24:07;;;;;;;;;;;12.50;87.80;;;;;;5104513;28;19959;-89
2022/10/08 03:26:33;;;;;;;;;;;12.50;87.70;;;;;;5130790;28;19938;-89
2022/10/08 03:28:58;;;;;;;;;;;12.40;87.60;;;;;;5130739;28;19942;-89
2022/10/08 03:31:24;;;;;;;;;;;12.40;87.50;;;;;;5112309;28;19949;-89
2022/10/08 03:33:50;;;;;;;;;;;12.30;87.30;;;;;;5129017;28;19948;-89
2022/10/08 03:36:16;;;;;;;;;;;12.40;87.50;;;;;;5130584;28;19964;-89
2022/10/08 03:38:41;;;;;;;;;;;12.40;87.70;;;;;;5120849;28;19944;-89
2022/10/08 03:41:08;;;;;;;;;;;12.60;87.70;;;;;;5109985;28;19938;-89
2022/10/08 03:43:34;;;;;;;;;;;12.50;87.80;;;;;;5101371;28;19983;-89
2022/10/08 03:46:00;;;;;;;;;;;12.60;88.30;;;;;;5109939;28;20014;-88
2022/10/08 03:48:25;;;;;;;;;;;12.60;88.30;;;;;;5109891;28;20313;-90
2022/10/08 03:50:52;;;;;;;;;;;12.50;88.00;;;;;;5109661;28;19959;-89
2022/10/08 03:53:17;;;;;;;;;;;12.40;87.90;;;;;;5085447;28;19980;-89
2022/10/08 03:55:43;;;;;;;;;;;12.40;88.10;;;;;;5095134;28;19986;-89
2022/10/08 03:58:09;;;;;;;;;;;12.30;87.80;;;;;;5096087;28;19948;-88
2022/10/08 04:00:34;;;;;;;;;;;12.30;87.60;;;;;;5096279;28;19940;-89
2022/10/08 04:03:00;;;;;;;;;;;12.20;88.10;;;;;;5075779;28;20496;-89
2022/10/08 04:05:25;;;;;;;;;;;12.10;88.40;;;;;;5095974;28;19962;-88
2022/10/08 04:07:51;;;;;;;;;;;12.10;88.90;;;;;;5095903;28;20039;-89
2022/10/08 04:10:16;;;;;;;;;;;12.00;89.90;;;;;;5073982;28;19949;-89
2022/10/08 04:12:42;;;;;;;;;;;12.10;90.50;;;;;;5075359;28;19943;-89
2022/10/08 04:15:08;;;;;;;;;;;12.10;90.50;;;;;;5093592;28;19950;-89
2022/10/08 04:17:33;;;;;;;;;;;12.10;90.40;;;;;;5095467;28;19940;-89
2022/10/08 04:19:59;;;;;;;;;;;12.20;90.30;;;;;;5077378;28;19943;-89
2022/10/08 04:22:24;;;;;;;;;;;12.20;89.70;;;;;;5078839;28;19965;-89
2022/10/08 04:24:50;;;;;;;;;;;12.30;89.90;;;;;;5073607;28;19953;-90
2022/10/08 04:27:15;;;;;;;;;;;12.30;89.80;;;;;;5082600;28;20332;-89
2022/10/08 04:29:41;;;;;;;;;;;12.40;89.60;;;;;;5095484;28;19951;-89
2022/10/08 04:32:06;;;;;;;;;;;12.30;89.30;;;;;;5077191;28;19948;-89
2022/10/08 04:34:32;;;;;;;;;;;12.30;89.20;;;;;;5093854;28;19950;-89
2022/10/08 04:36:57;;;;;;;;;;;12.40;89.10;;;;;;5095344;28;19942;-89
2022/10/08 04:39:23;;;;;;;;;;;12.40;88.90;;;;;;5082839;28;19946;-89
2022/10/08 04:41:48;;;;;;;;;;;12.40;88.70;;;;;;5075016;28;19941;-89
2022/10/08 04:44:14;;;;;;;;;;;12.30;88.40;;;;;;5084735;28;20074;-89
2022/10/08 04:46:39;;;;;;;;;;;12.20;87.10;;;;;;5095069;28;20340;-89
2022/10/08 04:49:52;;;;;;;;;;;12.20;87.30;;;;;;5131492;27;19937;-89
2022/10/08 04:53:37;;;;;;;;;;;12.20;87.00;;;;;;5120225;27;19968;-89
2022/10/08 04:56:46;;;;;;;;;;;12.10;87.00;;;;;;5104212;27;19949;-89
2022/10/08 04:59:12;;;;;;;;;;;12.10;87.20;;;;;;5110993;28;19948;-89
2022/10/08 05:01:37;;;;;;;;;;;12.10;87.40;;;;;;5108677;28;19942;-89
2022/10/08 05:04:03;;;;;;;;;;;12.20;88.10;;;;;;5109537;28;19992;-88
2022/10/08 05:06:30;;;;;;;;;;;12.20;88.10;;;;;;5104824;28;19947;-89
2022/10/08 05:08:56;;;;;;;;;;;12.20;88.10;;;;;;5102116;28;19944;-88
2022/10/08 05:11:23;;;;;;;;;;;12.20;88.00;;;;;;5109011;28;19958;-89
2022/10/08 05:13:49;;;;;;;;;;;12.20;88.00;;;;;;5110707;28;19939;-89
2022/10/08 05:16:16;;;;;;;;;;;12.10;87.90;;;;;;5106924;28;19944;-89
2022/10/08 05:18:42;;;;;;;;;;;12.00;88.10;;;;;;5109371;28;19946;-89
2022/10/08 05:21:12;;;;;;;;;;;12.10;88.10;;;;;;5110601;28;19934;-89
2022/10/08 05:23:38;;;;;;;;;;;12.10;88.30;;;;;;5106387;28;19945;-89
2022/10/08 05:26:10;;;;;;;;;;;12.10;88.20;;;;;;5090627;28;19946;-88
2022/10/08 05:28:36;;;;;;;;;;;12.10;88.60;;;;;;5110482;28;19995;-88
2022/10/08 05:31:01;;;;;;;;;;;12.10;89.10;;;;;;5100695;28;20044;-89
2022/10/08 05:33:27;;;;;;;;;;;12.20;89.00;;;;;;5098444;28;19947;-88
2022/10/08 05:35:52;;;;;;;;;;;12.30;88.70;;;;;;5103161;28;19945;-89
2022/10/08 05:39:53;;;;;;;;;;;12.20;87.60;;;;;;5142429;27;19947;-89
2022/10/08 05:42:18;;;;;;;;;;;12.10;86.70;;;;;;5128623;27;19955;-89
2022/10/08 05:44:44;;;;;;;;;;;12.10;87.20;;;;;;5133617;27;19987;-88
2022/10/08 05:47:09;;;;;;;;;;;12.00;87.40;;;;;;5152127;27;19944;-88
2022/10/08 05:49:35;;;;;;;;;;;12.00;87.40;;;;;;5150467;27;19938;-90
2022/10/08 05:52:01;;;;;;;;;;;12.00;88.10;;;;;;5138517;27;19940;-90
2022/10/08 05:54:26;;;;;;;;;;;12.00;88.40;;;;;;5125307;28;19944;-88
2022/10/08 05:56:52;;;;;;;;;;;12.10;88.60;;;;;;5117714;28;20037;-87
2022/10/08 05:59:19;;;;;;;;;;;12.00;89.30;;;;;;5127628;28;20297;-89
2022/10/08 06:01:45;;;;;;;;;;;11.90;89.70;;;;;;5102113;28;20316;-90
2022/10/08 06:04:11;;;;;;;;;;;11.80;90.30;;;;;;5099509;28;19943;-90
2022/10/08 06:06:37;;;;;;;;;;;11.90;90.40;;;;;;5101538;28;19951;-89
2022/10/08 06:09:03;;;;;;;;;;;12.00;90.90;;;;;;5106149;28;19975;-87
2022/10/08 06:11:29;;;;;;;;;;;12.10;90.70;;;;;;5119192;28;19993;-89
2022/10/08 06:13:56;;;;;;;;;;;12.20;90.30;;;;;;5100814;28;20363;-88
2022/10/08 06:16:22;;;;;;;;;;;12.30;90.00;;;;;;5098728;28;20076;-89
2022/10/08 06:18:48;;;;;;;;;;;12.30;90.00;;;;;;5104448;28;19964;-89
2022/10/08 06:21:15;;;;;;;;;;;12.30;90.30;;;;;;5105434;28;19945;-89
2022/10/08 06:23:48;;;;;;;;;;;12.40;90.60;;;;;;5103865;28;19944;-89
2022/10/08 06:26:14;;;;;;;;;;;12.50;90.60;;;;;;5104326;28;20095;-88
2022/10/08 06:28:40;;;;;;;;;;;12.50;90.40;;;;;;5099286;28;20440;-88
2022/10/08 06:31:06;;;;;;;;;;;12.60;90.50;;;;;;5104174;28;19993;-88
2022/10/08 06:33:32;;;;;;;;;;;12.70;90.40;;;;;;5096116;28;20315;-89
2022/10/08 06:36:02;;;;;;;;;;;12.90;89.70;;;;;;5097349;28;19998;-88
2022/10/08 06:38:27;;;;;;;;;;;12.90;89.30;;;;;;5090670;28;20021;-89
2022/10/08 06:40:55;;;;;;;;;;;13.00;89.00;;;;;;5062689;28;20067;-89
2022/10/08 06:43:21;;;;;;;;;;;13.20;89.00;;;;;;5081847;28;20327;-88
2022/10/08 06:45:46;;;;;;;;;;;13.20;88.80;;;;;;5080017;28;19949;-89
2022/10/08 06:48:12;;;;;;;;;;;13.30;88.90;;;;;;5075041;28;19941;-88
2022/10/08 06:50:41;;;;;;;;;;;13.30;89.90;;;;;;5064691;28;19945;-88
2022/10/08 06:53:07;;;;;;;;;;;13.40;90.00;;;;;;5061217;28;19952;-89
2022/10/08 06:55:33;;;;;;;;;;;13.60;89.90;;;;;;5063491;28;20036;-89
2022/10/08 06:57:59;;;;;;;;;;;13.80;89.50;;;;;;5063851;28;20435;-88
2022/10/08 07:00:25;;;;;;;;;;;13.90;89.30;;;;;;5067319;28;19944;-89
2022/10/08 07:02:51;;;;;;;;;;;14.00;89.10;;;;;;5050356;28;19955;-88
2022/10/08 07:05:16;;;;;;;;;;;14.10;88.80;;;;;;5075624;28;20593;-90
2022/10/08 07:07:42;;;;;;;;;;;14.30;88.40;;;;;;5075641;28;19945;-89
2022/10/08 07:10:08;;;;;;;;;;;14.40;88.30;;;;;;5074488;28;19944;-88
2022/10/08 07:12:33;;;;;;;;;;;14.60;88.30;;;;;;5082216;28;19949;-88
2022/10/08 07:14:59;;;;;;;;;;;14.70;87.80;;;;;;5090849;28;19939;-89
2022/10/08 07:17:27;;;;;;;;;;;14.80;87.40;;;;;;5072811;28;19947;-88
2022/10/08 07:19:55;;;;;;;;;;;14.90;87.10;;;;;;5094391;28;19956;-89
2022/10/08 07:22:21;;;;;;;;;;;15.00;86.80;;;;;;5093973;28;20398;-90
2022/10/08 07:24:47;;;;;;;;;;;15.10;86.50;;;;;;5095469;28;19996;-88
2022/10/08 07:27:13;;;;;;;;;;;15.30;86.20;;;;;;5095461;28;19965;-89
2022/10/08 07:29:38;;;;;;;;;;;15.30;85.80;;;;;;5083906;28;19956;-89
2022/10/08 07:32:04;;;;;;;;;;;15.50;85.60;;;;;;5086053;28;20427;-89
2022/10/08 07:34:29;;;;;;;;;;;15.60;85.20;;;;;;5095336;28;20044;-89
2022/10/08 07:36:55;;;;;;;;;;;15.70;85.10;;;;;;5095271;28;20006;-88
2022/10/08 07:39:21;;;;;;;;;;;15.80;85.00;;;;;;5111170;28;20416;-89
2022/10/08 07:41:47;;;;;;;;;;;15.90;85.00;;;;;;5102764;28;20353;-89
2022/10/08 07:44:13;;;;;;;;;;;16.00;84.80;;;;;;5093908;28;20405;-89
2022/10/08 07:46:46;;;;;;;;;;;16.10;83.90;;;;;;5094857;28;19948;-89
2022/10/08 07:49:12;;;;;;;;;;;16.20;83.20;;;;;;5099400;28;19947;-89
2022/10/08 07:51:38;;;;;;;;;;;16.30;82.90;;;;;;5094208;28;19961;-89
2022/10/08 07:54:05;;;;;;;;;;;16.40;82.70;;;;;;5075884;28;19951;-89
2022/10/08 07:56:31;;;;;;;;;;;16.40;82.30;;;;;;5088688;28;19959;-89
2022/10/08 07:58:57;;;;;;;;;;;16.60;81.50;;;;;;5115100;28;19956;-88
2022/10/08 08:01:28;;;;;;;;;;;16.60;80.60;;;;;;5114178;28;20353;-89
2022/10/08 08:04:03;;;;;;;;;;;16.80;79.90;;;;;;5113297;28;19953;-89
2022/10/08 08:06:30;;;;;;;;;;;16.90;79.00;;;;;;5115092;28;19968;-89
2022/10/08 08:08:56;;;;;;;;;;;17.00;79.10;;;;;;5115055;28;19961;-88
2022/10/08 08:11:22;;;;;;;;;;;17.00;78.60;;;;;;5106563;28;19944;-89
2022/10/08 08:13:48;;;;;;;;;;;17.20;78.00;;;;;;5094790;28;19950;-90
2022/10/08 08:16:16;;;;;;;;;;;17.30;77.40;;;;;;5094485;28;19949;-90
2022/10/08 08:18:43;;;;;;;;;;;17.40;77.40;;;;;;5094362;28;20099;-89
2022/10/08 08:21:10;;;;;;;;;;;17.50;77.10;;;;;;5093522;28;19951;-89
2022/10/08 08:23:37;;;;;;;;;;;17.60;77.10;;;;;;5094267;28;19946;-89
2022/10/08 08:26:04;;;;;;;;;;;17.70;77.20;;;;;;5094330;28;19942;-89
2022/10/08 08:28:30;;;;;;;;;;;17.80;76.80;;;;;;5094279;28;19966;-89
2022/10/08 08:31:08;;;;;;;;;;;17.90;75.30;;;;;;5096960;28;19949;-88
2022/10/08 08:33:34;;;;;;;;;;;18.10;74.40;;;;;;5114818;28;19972;-89
2022/10/08 08:35:59;;;;;;;;;;;18.30;74.10;;;;;;5114567;28;20402;-88
2022/10/08 08:38:25;;;;;;;;;;;18.30;73.50;;;;;;5088866;28;20019;-89
2022/10/08 08:40:51;;;;;;;;;;;18.40;74.60;;;;;;5073788;28;19947;-89
2022/10/08 08:43:17;;;;;;;;;;;18.50;75.40;;;;;;5073751;28;19985;-89
2022/10/08 08:45:44;;;;;;;;;;;18.60;75.50;;;;;;5072762;28;19989;-90
2022/10/08 08:48:24;;;;;;;;;;;18.70;73.80;;;;;;5073669;28;19937;-89
2022/10/08 08:50:52;;;;;;;;;;;18.80;74.00;;;;;;5072428;28;19962;-89
2022/10/08 08:53:18;;;;;;;;;;;18.80;74.10;;;;;;5073580;28;19941;-89
2022/10/08 08:55:45;;;;;;;;;;;18.90;72.80;;;;;;5073510;28;20431;-89
2022/10/08 08:58:14;;;;;;;;;;;18.90;72.60;;;;;;5072391;28;20055;-90
2022/10/08 09:00:41;;;;;;;;;;;19.00;72.70;;;;;;5073491;28;20390;-88
2022/10/08 09:03:13;;;;;;;;;;;19.10;72.30;;;;;;5073365;28;19939;-90
2022/10/08 09:05:40;;;;;;;;;;;19.20;72.00;;;;;;5073388;28;19937;-89
2022/10/08 09:08:14;;;;;;;;;;;19.20;72.00;;;;;;5082315;28;19969;-90
2022/10/08 09:10:46;;;;;;;;;;;19.30;71.70;;;;;;5093485;28;19951;-89
2022/10/08 09:13:19;;;;;;;;;;;19.30;71.60;;;;;;5086647;28;19961;-88
2022/10/08 09:15:45;;;;;;;;;;;19.40;71.50;;;;;;5093349;28;19951;-90
2022/10/08 09:18:13;;;;;;;;;;;19.50;71.60;;;;;;5090638;28;19965;-88
2022/10/08 09:20:39;;;;;;;;;;;19.60;70.70;;;;;;5093400;28;20444;-90
2022/10/08 09:23:12;;;;;;;;;;;19.60;70.90;;;;;;5093563;28;19951;-90
2022/10/08 09:25:39;;;;;;;;;;;19.70;70.90;;;;;;5075257;28;20010;-89
2022/10/08 09:28:04;;;;;;;;;;;19.70;71.10;;;;;;5091599;28;19945;-89
2022/10/08 09:30:35;;;;;;;;;;;19.80;71.30;;;;;;5093315;28;19947;-89
2022/10/08 09:33:15;;;;;;;;;;;19.90;71.30;;;;;;5089258;28;19945;-90
2022/10/08 09:35:45;;;;;;;;;;;20.00;72.10;;;;;;5093053;28;19996;-89
2022/10/08 09:38:22;;;;;;;;;;;20.20;71.10;;;;;;5077882;28;20036;-89
2022/10/08 09:41:02;;;;;;;;;;;20.20;71.10;;;;;;5075175;28;20001;-89
2022/10/08 09:43:28;;;;;;;;;;;20.30;70.60;;;;;;5087810;28;19955;-89
2022/10/08 09:45:54;;;;;;;;;;;20.50;70.10;;;;;;5090908;28;20018;-89
2022/10/08 09:48:27;;;;;;;;;;;20.50;69.20;;;;;;5093192;28;19940;-89
2022/10/08 09:51:03;;;;;;;;;;;20.60;68.40;;;;;;5082282;28;19967;-89
2022/10/08 09:53:43;;;;;;;;;;;20.70;67.70;;;;;;5076998;28;19957;-89
2022/10/08 09:56:09;;;;;;;;;;;20.80;68.00;;;;;;5084661;28;19952;-90
2022/10/08 09:58:51;;;;;;;;;;;20.80;67.60;;;;;;5093258;28;19968;-89
2022/10/08 10:01:18;;;;;;;;;;;20.90;68.70;;;;;;5081251;28;19996;-90
2022/10/08 10:03:48;;;;;;;;;;;21.10;67.70;;;;;;5072894;28;20013;-90
2022/10/08 10:06:13;;;;;;;;;;;21.20;67.00;;;;;;5072744;28;19941;-89
2022/10/08 10:08:42;;;;;;;;;;;21.30;67.90;;;;;;5072764;28;19944;-90
2022/10/08 10:11:10;;;;;;;;;;;21.50;67.40;;;;;;5079346;28;20014;-89
2022/10/08 10:13:37;;;;;;;;;;;21.70;67.40;;;;;;5072705;28;20461;-89
2022/10/08 10:16:06;;;;;;;;;;;21.70;65.80;;;;;;5072724;28;19945;-89
2022/10/08 10:18:52;;;;;;;;;;;21.80;65.50;;;;;;5072605;28;20007;-88
2022/10/08 10:21:22;;;;;;;;;;;22.00;64.70;;;;;;5067987;28;19944;-89
2022/10/08 10:23:53;;;;;;;;;;;22.00;63.70;;;;;;5092861;28;20028;-89
2022/10/08 10:26:21;;;;;;;;;;;22.00;64.30;;;;;;5078848;28;19949;-89
2022/10/08 10:28:51;;;;;;;;;;;22.20;64.60;;;;;;5076354;28;19941;-90
2022/10/08 10:31:35;;;;;;;;;;;22.30;62.00;;;;;;5076249;28;19979;-89
2022/10/08 10:34:04;;;;;;;;;;;22.30;62.20;;;;;;5074963;28;20382;-88
2022/10/08 10:36:40;;;;;;;;;;;22.40;62.10;;;;;;5089150;28;19945;-89
2022/10/08 10:39:24;;;;;;;;;;;22.40;61.90;;;;;;5110309;28;19975;-90
2022/10/08 10:41:53;;;;;;;;;;;22.60;64.50;;;;;;5116754;28;19939;-89
2022/10/08 10:44:25;;;;;;;;;;;22.80;63.20;;;;;;5116722;28;19989;-90
2022/10/08 10:46:56;;;;;;;;;;;22.90;62.20;;;;;;5096070;28;19950;-89
2022/10/08 10:49:23;;;;;;;;;;;23.20;60.60;;;;;;5116626;28;19935;-89
2022/10/08 10:52:07;;;;;;;;;;;23.40;58.70;;;;;;5116423;28;19959;-89
2022/10/08 10:54:40;;;;;;;;;;;23.60;56.10;;;;;;5098215;28;19945;-91
2022/10/08 10:57:21;;;;;;;;;;;23.70;56.70;;;;;;5114482;28;19993;-90
2022/10/08 10:59:55;;;;;;;;;;;23.80;55.60;;;;;;5116292;28;19955;-89
2022/10/08 11:02:20;;;;;;;;;;;24.00;55.70;;;;;;5116340;28;20409;-90
2022/10/08 11:04:55;;;;;;;;;;;24.00;57.20;;;;;;5116368;28;19941;-90
2022/10/08 11:07:41;;;;;;;;;;;23.90;56.20;;;;;;5113794;28;19943;-89
2022/10/08 11:10:19;;;;;;;;;;;23.90;56.80;;;;;;5116204;28;20021;-89
2022/10/08 11:12:58;;;;;;;;;;;23.70;56.00;;;;;;5116188;28;19975;-89
2022/10/08 11:15:26;;;;;;;;;;;23.80;56.70;;;;;;5114348;28;20053;-90
2022/10/08 11:18:10;;;;;;;;;;;23.80;56.90;;;;;;5114875;28;19971;-90
2022/10/08 11:20:48;;;;;;;;;;;23.90;58.20;;;;;;5095041;28;19941;-89
2022/10/08 11:23:23;;;;;;;;;;;24.10;56.40;;;;;;5114822;28;19956;-90
2022/10/08 11:25:54;;;;;;;;;;;24.30;56.00;;;;;;5093832;28;19964;-89
2022/10/08 11:28:28;;;;;;;;;;;24.30;54.40;;;;;;5095469;28;19942;-89
2022/10/08 11:31:00;;;;;;;;;;;24.40;55.60;;;;;;5099393;28;20041;-89
2022/10/08 11:33:26;;;;;;;;;;;24.60;53.90;;;;;;5115794;28;19935;-90
2022/10/08 11:36:08;;;;;;;;;;;24.80;52.80;;;;;;5108592;28;19943;-90
2022/10/08 11:38:37;;;;;;;;;;;25.00;52.50;;;;;;5106159;28;20018;-90
2022/10/08 11:41:15;;;;;;;;;;;25.20;50.70;;;;;;5080489;28;19989;-89
2022/10/08 11:43:51;;;;;;;;;;;25.50;51.90;;;;;;5115592;28;19945;-89
2022/10/08 11:46:30;;;;;;;;;;;25.80;51.50;;;;;;5108407;28;20315;-90
2022/10/08 11:49:00;;;;;;;;;;;25.80;49.70;;;;;;5095085;28;19938;-89
2022/10/08 11:51:27;;;;;;;;;;;25.80;49.70;;;;;;5094859;28;20050;-89
2022/10/08 11:53:55;;;;;;;;;;;25.70;49.70;;;;;;5094999;28;19948;-89
2022/10/08 11:56:21;;;;;;;;;;;25.70;49.60;;;;;;5098134;28;19966;-89
2022/10/08 11:58:50;;;;;;;;;;;25.90;50.60;;;;;;5096968;28;19963;-91
2022/10/08 12:01:16;;;;;;;;;;;26.20;48.90;;;;;;5115242;28;19940;-89
2022/10/08 12:03:41;;;;;;;;;;;26.90;49.00;;;;;;5115184;28;19984;-90
2022/10/08 12:06:16;;;;;;;;;;;27.70;46.80;;;;;;5112571;28;20017;-89
2022/10/08 12:08:51;;;;;;;;;;;28.10;44.70;;;;;;5115116;28;19945;-91
2022/10/08 12:11:34;;;;;;;;;;;29.00;44.10;;;;;;5115314;28;19941;-90
2022/10/08 12:14:15;;;;;;;;;;;29.20;43.30;;;;;;5114953;28;19939;-89
2022/10/08 12:16:47;;;;;;;;;;;29.40;41.60;;;;;;5113193;28;19956;-89
2022/10/08 12:19:31;;;;;;;;;;;30.30;39.60;;;;;;5114836;28;19954;-90
2022/10/08 12:21:57;;;;;;;;;;;30.90;38.90;;;;;;5114785;28;20030;-90
2022/10/08 12:24:52;;;;;;;;;;;31.30;39.30;;;;;;5114730;28;20013;-89
2022/10/08 12:27:25;;;;;;;;;;;31.70;38.00;;;;;;5090220;28;19944;-89
2022/10/08 12:30:03;;;;;;;;;;;31.80;37.30;;;;;;5114683;28;19947;-90
2022/10/08 12:32:30;;;;;;;;;;;31.50;36.60;;;;;;5114549;28;20038;-91
2022/10/08 12:34:56;;;;;;;;;;;31.40;37.30;;;;;;5114578;28;19948;-90
2022/10/08 12:37:31;;;;;;;;;;;31.30;38.50;;;;;;5112743;28;19980;-90
2022/10/08 12:40:00;;;;;;;;;;;31.20;37.80;;;;;;5114620;28;19971;-90
2022/10/08 12:42:34;;;;;;;;;;;31.50;37.60;;;;;;5114365;28;20308;-90
2022/10/08 12:45:18;;;;;;;;;;;31.70;38.80;;;;;;5114359;28;19945;-90
2022/10/08 12:47:53;;;;;;;;;;;31.30;38.20;;;;;;5113827;28;20089;-90
2022/10/08 12:50:37;;;;;;;;;;;31.80;37.20;;;;;;5111725;28;19947;-90
2022/10/08 12:53:03;;;;;;;;;;;32.20;36.90;;;;;;5114196;28;19955;-90
2022/10/08 12:55:32;;;;;;;;;;;32.70;36.50;;;;;;5114174;28;20022;-90
2022/10/08 12:57:57;;;;;;;;;;;33.20;34.30;;;;;;5114065;28;19935;-90
2022/10/08 13:00:24;;;;;;;;;;;32.70;36.60;;;;;;5112327;28;19948;-89
2022/10/08 13:02:57;;;;;;;;;;;32.20;37.10;;;;;;5114032;28;20335;-90
2022/10/08 13:05:22;;;;;;;;;;;32.20;35.00;;;;;;5114302;28;20425;-90
2022/10/08 13:07:48;;;;;;;;;;;32.00;36.00;;;;;;5094146;28;19974;-90
2022/10/08 13:10:31;;;;;;;;;;;31.90;35.40;;;;;;5114016;28;19950;-90
2022/10/08 13:13:04;;;;;;;;;;;31.60;35.80;;;;;;5113886;28;19971;-90
2022/10/08 13:15:32;;;;;;;;;;;31.90;35.20;;;;;;5113903;28;19940;-90
2022/10/08 13:17:58;;;;;;;;;;;31.60;35.50;;;;;;5112026;28;19939;-89
2022/10/08 13:20:23;;;;;;;;;;;32.50;34.70;;;;;;5113855;28;20007;-89
2022/10/08 13:22:49;;;;;;;;;;;32.80;34.40;;;;;;5094438;28;20332;-92
2022/10/08 13:25:34;;;;;;;;;;;32.70;35.50;;;;;;5093398;28;20312;-90
2022/10/08 13:28:13;;;;;;;;;;;32.60;36.00;;;;;;5093397;28;19939;-91
2022/10/08 13:30:40;;;;;;;;;;;32.10;35.80;;;;;;5108319;28;19942;-91
2022/10/08 13:33:11;;;;;;;;;;;32.30;35.40;;;;;;5113915;28;19953;-90
2022/10/08 13:35:36;;;;;;;;;;;32.30;34.20;;;;;;5113644;28;19935;-90
2022/10/08 13:38:05;;;;;;;;;;;32.20;35.60;;;;;;5115621;22;20063;-89
2022/10/08 13:40:31;;;;;;;;;;;31.90;35.80;;;;;;5092267;28;19956;-90
2022/10/08 13:42:59;;;;;;;;;;;32.50;35.70;;;;;;5093159;28;20313;-90
2022/10/08 13:45:27;;;;;;;;;;;33.20;34.60;;;;;;5093426;28;19947;-90
2022/10/08 13:47:53;;;;;;;;;;;33.40;33.90;;;;;;5093205;28;19960;-90
2022/10/08 13:50:19;;;;;;;;;;;33.10;32.60;;;;;;5092384;28;19954;-90
2022/10/08 13:52:50;;;;;;;;;;;33.40;32.90;;;;;;5112304;28;19962;-89
2022/10/08 13:55:35;;;;;;;;;;;33.60;32.40;;;;;;5113652;28;19949;-91
2022/10/08 13:58:02;;;;;;;;;;;32.70;34.00;;;;;;5112732;28;19943;-91
2022/10/08 14:00:29;;;;;;;;;;;33.30;34.60;;;;;;5115324;28;19942;-89
2022/10/08 14:02:54;;;;;;;;;;;33.00;34.30;;;;;;5114994;28;20414;-90
2022/10/08 14:05:21;;;;;;;;;;;33.20;33.70;;;;;;5117738;28;20004;-90
2022/10/08 14:07:47;;;;;;;;;;;33.50;33.30;;;;;;5117132;28;19943;-90
2022/10/08 14:10:13;;;;;;;;;;;33.40;32.20;;;;;;5117176;28;19941;-90
2022/10/08 14:12:39;;;;;;;;;;;33.70;32.70;;;;;;5115413;28;20015;-90
2022/10/08 14:15:05;;;;;;;;;;;33.80;31.40;;;;;;5116828;28;20014;-90
2022/10/08 14:17:31;;;;;;;;;;;33.40;32.30;;;;;;5117134;28;19974;-90
2022/10/08 14:19:57;;;;;;;;;;;33.60;33.10;;;;;;5098772;28;20056;-89
2022/10/08 14:22:22;;;;;;;;;;;33.30;33.30;;;;;;5117162;28;19950;-89
2022/10/08 14:24:48;;;;;;;;;;;33.40;32.70;;;;;;5102654;28;19955;-90
2022/10/08 14:27:13;;;;;;;;;;;33.20;34.70;;;;;;5096511;28;19942;-90
2022/10/08 14:29:39;;;;;;;;;;;33.40;35.10;;;;;;5096495;28;19951;-90
2022/10/08 14:32:07;;;;;;;;;;;33.50;33.90;;;;;;5096453;28;19946;-90
2022/10/08 14:34:33;;;;;;;;;;;33.60;33.70;;;;;;5096392;28;19944;-90